Time;durP1;ratioP1;P1;durP2;ratioP2;P2;SDS_P1;SDS_P2;PMS_P1;PMS_P2;Temp;Humidity;BMP_temperature;BMP_pressure;BME280_temperature;BME280_humidity;BME280_pressure;Samples;Min_cycle;Max_cycle;Signal;HPM_P1;HPM_P2
2023/05/20 00:01:35;;;;;;;18.80;15.52;;;;;;;;;;5137701;27;20058;-67
2023/05/20 00:04:00;;;;;;;18.00;14.63;;;;;;;;;;5137981;27;20114;-66
2023/05/20 00:06:26;;;;;;;19.55;15.48;;;;;;;;;;5137823;27;20015;-67
2023/05/20 00:08:51;;;;;;;17.52;14.40;;;;;;;;;;5137968;27;20117;-69
2023/05/20 00:11:16;;;;;;;18.67;15.25;;;;;;;;;;5137679;27;20481;-69
2023/05/20 00:13:43;;;;;;;22.75;16.25;;;;;;;;;;5137417;27;20029;-69
2023/05/20 00:16:08;;;;;;;20.20;16.27;;;;;;;;;;5119518;27;20031;-69
2023/05/20 00:18:33;;;;;;;19.88;15.88;;;;;;;;;;5137498;27;20025;-68
2023/05/20 00:20:59;;;;;;;19.10;15.55;;;;;;;;;;5137434;27;20043;-68
2023/05/20 00:23:24;;;;;;;23.55;16.83;;;;;;;;;;5137465;27;20027;-68
2023/05/20 00:25:50;;;;;;;21.55;16.45;;;;;;;;;;5137466;27;20034;-68
2023/05/20 00:28:15;;;;;;;20.67;16.58;;;;;;;;;;5118953;27;20026;-68
2023/05/20 00:30:41;;;;;;;20.00;14.95;;;;;;;;;;5137873;27;20024;-68
2023/05/20 00:33:06;;;;;;;21.10;15.93;;;;;;;;;;5119163;27;20371;-68
2023/05/20 00:35:32;;;;;;;22.70;16.20;;;;;;;;;;5125843;27;20065;-68
2023/05/20 00:37:57;;;;;;;17.05;12.73;;;;;;;;;;5117164;28;20475;-68
2023/05/20 00:40:23;;;;;;;16.20;12.95;;;;;;;;;;5115259;28;20092;-70
2023/05/20 00:42:49;;;;;;;17.30;12.63;;;;;;;;;;5115689;28;20533;-69
2023/05/20 00:45:16;;;;;;;12.70;10.73;;;;;;;;;;5115243;28;20115;-70
2023/05/20 00:47:41;;;;;;;17.30;12.82;;;;;;;;;;5115616;28;20033;-70
2023/05/20 00:50:07;;;;;;;13.77;12.00;;;;;;;;;;5118139;22;20218;-69
2023/05/20 00:52:33;;;;;;;16.15;11.25;;;;;;;;;;5084715;22;22242;-69
2023/05/20 00:54:58;;;;;;;12.60;10.38;;;;;;;;;;5057759;28;20048;-69
2023/05/20 00:57:24;;;;;;;11.63;10.18;;;;;;;;;;5057537;28;20487;-69
2023/05/20 00:59:49;;;;;;;10.48;9.40;;;;;;;;;;5057848;28;20027;-69
2023/05/20 01:02:15;;;;;;;11.95;9.63;;;;;;;;;;5040512;28;20111;-69
2023/05/20 01:04:45;;;;;;;11.05;9.15;;;;;;;;;;5057550;28;20467;-70
2023/05/20 01:07:12;;;;;;;10.68;9.13;;;;;;;;;;5075406;28;20098;-70
2023/05/20 01:09:37;;;;;;;10.07;8.50;;;;;;;;;;5076018;28;20416;-70
2023/05/20 01:12:16;;;;;;;11.60;8.57;;;;;;;;;;5075206;28;20024;-70
2023/05/20 01:15:02;;;;;;;10.73;9.02;;;;;;;;;;5075219;28;20476;-69
2023/05/20 01:17:31;;;;;;;10.30;8.85;;;;;;;;;;5064869;28;20044;-69
2023/05/20 01:19:58;;;;;;;10.18;8.40;;;;;;;;;;5057848;28;20035;-69
2023/05/20 01:22:25;;;;;;;9.68;8.20;;;;;;;;;;5090595;28;20029;-69
2023/05/20 01:24:52;;;;;;;8.88;7.97;;;;;;;;;;5074456;28;20555;-69
2023/05/20 01:27:19;;;;;;;10.70;8.00;;;;;;;;;;5075084;28;20469;-69
2023/05/20 01:29:47;;;;;;;8.82;7.95;;;;;;;;;;5056973;28;20027;-68
2023/05/20 01:32:25;;;;;;;9.23;8.30;;;;;;;;;;5074843;28;20032;-68
2023/05/20 01:34:51;;;;;;;8.60;7.80;;;;;;;;;;5075280;28;20416;-69
2023/05/20 01:37:18;;;;;;;9.13;7.70;;;;;;;;;;5057499;28;20081;-69
2023/05/20 01:39:44;;;;;;;9.40;7.40;;;;;;;;;;5056755;28;20063;-69
2023/05/20 01:42:10;;;;;;;8.18;7.35;;;;;;;;;;5057630;28;20113;-68
2023/05/20 01:44:36;;;;;;;8.18;7.15;;;;;;;;;;5056680;28;20031;-67
2023/05/20 01:47:01;;;;;;;8.02;7.25;;;;;;;;;;5056680;28;20033;-68
2023/05/20 01:49:27;;;;;;;8.70;7.63;;;;;;;;;;5056617;28;20028;-67
2023/05/20 01:51:52;;;;;;;9.85;8.45;;;;;;;;;;5075118;28;20086;-67
2023/05/20 01:54:17;;;;;;;9.80;7.97;;;;;;;;;;5074742;28;20047;-67
2023/05/20 01:56:44;;;;;;;10.02;7.93;;;;;;;;;;5074402;28;20357;-67
2023/05/20 01:59:10;;;;;;;9.02;7.93;;;;;;;;;;5056379;28;20043;-63
2023/05/20 02:01:35;;;;;;;9.20;8.20;;;;;;;;;;5056775;28;20041;-63
2023/05/20 02:04:01;;;;;;;10.18;8.25;;;;;;;;;;5056344;28;20055;-63
2023/05/20 02:06:26;;;;;;;10.52;8.85;;;;;;;;;;5039700;28;20036;-62
2023/05/20 02:08:53;;;;;;;12.13;8.77;;;;;;;;;;5040167;28;20464;-61
2023/05/20 02:11:18;;;;;;;10.65;8.77;;;;;;;;;;5056251;28;20036;-61
2023/05/20 02:13:44;;;;;;;10.45;8.45;;;;;;;;;;5055497;28;20392;-61
2023/05/20 02:16:09;;;;;;;8.70;7.85;;;;;;;;;;5074366;28;20103;-61
2023/05/20 02:18:35;;;;;;;9.63;8.43;;;;;;;;;;5056108;28;20438;-63
2023/05/20 02:21:04;;;;;;;10.40;7.93;;;;;;;;;;5055941;28;20480;-63
2023/05/20 02:23:30;;;;;;;11.15;8.43;;;;;;;;;;5073774;28;20032;-63
2023/05/20 02:25:57;;;;;;;11.48;8.30;;;;;;;;;;5073793;28;20032;-67
2023/05/20 02:28:22;;;;;;;8.98;7.97;;;;;;;;;;5056462;28;20032;-65
2023/05/20 02:34:07;;;;;;;11.43;8.07;;;;;;;;;;5114070;22;20052;-63
2023/05/20 02:36:32;;;;;;;7.85;7.05;;;;;;;;;;5100843;22;20056;-66
2023/05/20 02:39:00;;;;;;;7.75;7.05;;;;;;;;;;5087150;22;20154;-67
2023/05/20 02:41:25;;;;;;;9.95;7.35;;;;;;;;;;5055855;28;20064;-68
2023/05/20 02:43:52;;;;;;;6.82;6.13;;;;;;;;;;5089546;28;20024;-66
2023/05/20 02:46:18;;;;;;;7.35;6.55;;;;;;;;;;5073728;28;20495;-67
2023/05/20 02:48:44;;;;;;;7.47;6.07;;;;;;;;;;5073812;28;20476;-67
2023/05/20 02:51:10;;;;;;;7.00;6.30;;;;;;;;;;5055495;28;20153;-68
2023/05/20 02:53:35;;;;;;;8.38;6.65;;;;;;;;;;5055741;28;20036;-68
2023/05/20 02:56:02;;;;;;;6.60;5.97;;;;;;;;;;5055552;28;20024;-69
2023/05/20 02:58:28;;;;;;;8.27;5.78;;;;;;;;;;5055953;28;20013;-68
2023/05/20 03:00:53;;;;;;;6.97;6.28;;;;;;;;;;5056043;28;20456;-69
2023/05/20 03:03:19;;;;;;;6.65;6.05;;;;;;;;;;5088968;28;20020;-69
2023/05/20 03:05:44;;;;;;;6.93;6.22;;;;;;;;;;5055494;28;20025;-69
2023/05/20 03:08:10;;;;;;;6.93;6.25;;;;;;;;;;5073683;28;20028;-69
2023/05/20 03:10:38;;;;;;;6.65;5.68;;;;;;;;;;5055404;28;20021;-69
2023/05/20 03:13:08;;;;;;;6.75;6.05;;;;;;;;;;5073448;28;20047;-69
2023/05/20 03:15:38;;;;;;;6.18;5.57;;;;;;;;;;5055580;28;20040;-70
2023/05/20 03:18:04;;;;;;;7.20;5.68;;;;;;;;;;5073338;28;20365;-70
2023/05/20 03:20:31;;;;;;;5.97;5.47;;;;;;;;;;5088848;28;20029;-69
2023/05/20 03:22:57;;;;;;;6.38;5.78;;;;;;;;;;5088728;28;20032;-67
2023/05/20 03:25:23;;;;;;;5.70;5.20;;;;;;;;;;5092054;28;20111;-68
2023/05/20 03:27:48;;;;;;;6.20;5.68;;;;;;;;;;5092878;28;20503;-69
2023/05/20 03:30:14;;;;;;;6.50;5.90;;;;;;;;;;5093339;28;20033;-67
2023/05/20 03:32:39;;;;;;;6.90;6.05;;;;;;;;;;5093091;28;20044;-69
2023/05/20 03:35:05;;;;;;;6.05;5.55;;;;;;;;;;5092808;28;20024;-68
2023/05/20 03:37:30;;;;;;;6.63;5.38;;;;;;;;;;5059312;28;20476;-68
2023/05/20 03:39:56;;;;;;;7.18;6.47;;;;;;;;;;5059357;28;20040;-68
2023/05/20 03:42:23;;;;;;;8.10;6.32;;;;;;;;;;5092833;28;20036;-65
2023/05/20 03:44:49;;;;;;;7.05;6.28;;;;;;;;;;5058941;28;20058;-65
2023/05/20 03:47:17;;;;;;;7.00;6.35;;;;;;;;;;5093153;28;20046;-65
2023/05/20 03:49:42;;;;;;;7.53;6.57;;;;;;;;;;5058867;28;20111;-65
2023/05/20 03:52:08;;;;;;;7.55;6.80;;;;;;;;;;5042452;28;20044;-64
2023/05/20 03:54:35;;;;;;;10.18;7.13;;;;;;;;;;5075532;28;20029;-64
2023/05/20 03:57:02;;;;;;;8.43;6.82;;;;;;;;;;5059524;28;20413;-66
2023/05/20 03:59:27;;;;;;;7.78;7.00;;;;;;;;;;5042125;28;20385;-64
2023/05/20 04:01:55;;;;;;;8.15;7.35;;;;;;;;;;5058381;28;20119;-65
2023/05/20 04:04:21;;;;;;;8.25;7.10;;;;;;;;;;5075392;28;20091;-65
2023/05/20 04:06:48;;;;;;;8.43;7.53;;;;;;;;;;5076895;28;20082;-66
2023/05/20 04:09:13;;;;;;;8.18;7.43;;;;;;;;;;5092663;28;20012;-65
2023/05/20 04:11:38;;;;;;;8.20;7.25;;;;;;;;;;5076333;28;20032;-69
2023/05/20 04:14:04;;;;;;;8.68;6.68;;;;;;;;;;5092080;28;20541;-69
2023/05/20 04:16:29;;;;;;;9.27;7.22;;;;;;;;;;5058450;28;20115;-70
2023/05/20 04:18:55;;;;;;;7.88;7.07;;;;;;;;;;5058878;28;20031;-69
2023/05/20 04:21:20;;;;;;;8.80;7.72;;;;;;;;;;5058595;28;20036;-69
2023/05/20 04:23:46;;;;;;;7.97;7.18;;;;;;;;;;5091703;28;20087;-67
2023/05/20 04:26:12;;;;;;;7.78;7.03;;;;;;;;;;5058239;28;20467;-63
2023/05/20 04:28:37;;;;;;;9.00;8.10;;;;;;;;;;5091520;28;20098;-67
2023/05/20 04:31:03;;;;;;;9.15;7.50;;;;;;;;;;5042323;28;20032;-67
2023/05/20 04:33:31;;;;;;;9.60;8.18;;;;;;;;;;5091914;28;20029;-65
2023/05/20 04:35:58;;;;;;;8.73;7.78;;;;;;;;;;5058020;28;20125;-64
2023/05/20 04:38:28;;;;;;;9.13;7.43;;;;;;;;;;5058061;28;20056;-62
2023/05/20 04:40:57;;;;;;;7.50;6.82;;;;;;;;;;5058417;28;20052;-62
2023/05/20 04:43:30;;;;;;;8.40;7.60;;;;;;;;;;5057921;28;20552;-63
2023/05/20 04:45:56;;;;;;;8.77;7.88;;;;;;;;;;5057918;28;20029;-63
2023/05/20 04:48:21;;;;;;;8.48;7.68;;;;;;;;;;5091369;28;20031;-62
2023/05/20 04:50:48;;;;;;;8.75;7.28;;;;;;;;;;5058216;28;20029;-62
2023/05/20 04:53:16;;;;;;;9.10;8.15;;;;;;;;;;5057756;28;20048;-62
2023/05/20 04:55:42;;;;;;;7.93;7.13;;;;;;;;;;5076476;28;20020;-63
2023/05/20 04:58:13;;;;;;;9.68;8.27;;;;;;;;;;5091238;28;20499;-63
2023/05/20 05:00:39;;;;;;;8.88;7.72;;;;;;;;;;5069268;28;20077;-62
2023/05/20 05:03:04;;;;;;;9.13;7.90;;;;;;;;;;5077651;28;20024;-62
2023/05/20 05:05:30;;;;;;;8.30;7.43;;;;;;;;;;5077606;28;20055;-64
2023/05/20 05:07:56;;;;;;;9.48;8.18;;;;;;;;;;5074030;28;20082;-64
2023/05/20 05:10:23;;;;;;;9.82;8.80;;;;;;;;;;5066636;28;20020;-65
2023/05/20 05:12:49;;;;;;;10.82;8.68;;;;;;;;;;5060791;28;20023;-65
2023/05/20 05:15:15;;;;;;;10.88;8.85;;;;;;;;;;5077628;28;20024;-65
2023/05/20 05:17:41;;;;;;;11.23;9.50;;;;;;;;;;5078208;28;20390;-65
2023/05/20 05:20:08;;;;;;;10.30;9.20;;;;;;;;;;5095010;28;20085;-65
2023/05/20 05:22:35;;;;;;;10.88;9.02;;;;;;;;;;5060291;28;20032;-65
2023/05/20 05:25:02;;;;;;;12.20;9.30;;;;;;;;;;5040341;28;20014;-64
2023/05/20 05:27:27;;;;;;;12.25;10.52;;;;;;;;;;5075011;28;20496;-65
2023/05/20 05:29:53;;;;;;;9.43;8.43;;;;;;;;;;5057436;28;20058;-62
2023/05/20 05:32:18;;;;;;;10.48;8.93;;;;;;;;;;5057294;28;20037;-62
2023/05/20 05:34:44;;;;;;;12.10;9.98;;;;;;;;;;5040353;28;20158;-62
2023/05/20 05:37:09;;;;;;;10.32;9.27;;;;;;;;;;5075125;28;20465;-62
2023/05/20 05:39:36;;;;;;;12.77;9.88;;;;;;;;;;5056649;28;20032;-62
2023/05/20 05:42:02;;;;;;;9.95;8.85;;;;;;;;;;5056781;28;20539;-62
2023/05/20 05:44:28;;;;;;;11.80;10.27;;;;;;;;;;5057084;28;20021;-62
2023/05/20 05:46:53;;;;;;;14.35;11.52;;;;;;;;;;5039785;28;20154;-62
2023/05/20 05:49:19;;;;;;;14.80;10.98;;;;;;;;;;5056076;28;20073;-62
2023/05/20 05:51:44;;;;;;;14.77;10.32;;;;;;;;;;5040244;28;20036;-62
2023/05/20 05:54:09;;;;;;;14.30;12.13;;;;;;;;;;5056579;28;20021;-62
2023/05/20 05:56:35;;;;;;;13.45;10.93;;;;;;;;;;5057055;28;20460;-62
2023/05/20 05:59:00;;;;;;;14.23;10.43;;;;;;;;;;5056513;28;20028;-62
2023/05/20 06:01:26;;;;;;;15.48;11.25;;;;;;;;;;5056169;28;20024;-62
2023/05/20 06:03:52;;;;;;;13.63;10.98;;;;;;;;;;5056667;28;20017;-62
2023/05/20 06:06:18;;;;;;;13.52;10.38;;;;;;;;;;5074306;28;20032;-62
2023/05/20 06:08:43;;;;;;;17.77;12.48;;;;;;;;;;5074308;28;20028;-62
2023/05/20 06:11:10;;;;;;;15.65;12.25;;;;;;;;;;5056541;28;20449;-62
2023/05/20 06:13:35;;;;;;;19.80;12.23;;;;;;;;;;5056571;28;20058;-62
2023/05/20 06:16:01;;;;;;;15.05;11.55;;;;;;;;;;5073881;28;20373;-62
2023/05/20 06:18:26;;;;;;;16.15;12.13;;;;;;;;;;5083735;28;20027;-62
2023/05/20 06:20:55;;;;;;;14.93;12.10;;;;;;;;;;5075820;28;20032;-61
2023/05/20 06:23:21;;;;;;;16.05;11.98;;;;;;;;;;5058653;28;20028;-61
2023/05/20 06:25:56;;;;;;;20.38;12.82;;;;;;;;;;5073280;28;20024;-62
2023/05/20 06:28:22;;;;;;;16.58;12.98;;;;;;;;;;5055231;28;20531;-62
2023/05/20 06:30:47;;;;;;;16.30;11.93;;;;;;;;;;5055639;28;20032;-61
2023/05/20 06:33:13;;;;;;;17.90;13.55;;;;;;;;;;5054787;28;20058;-61
2023/05/20 06:35:38;;;;;;;18.63;13.32;;;;;;;;;;5072766;28;20468;-61
2023/05/20 06:38:04;;;;;;;20.25;14.73;;;;;;;;;;5055275;28;20388;-62
2023/05/20 06:40:30;;;;;;;20.85;13.73;;;;;;;;;;5054138;28;20506;-61
2023/05/20 06:42:55;;;;;;;21.63;14.88;;;;;;;;;;5072563;28;20039;-61
2023/05/20 06:45:40;;;;;;;20.63;15.02;;;;;;;;;;5091896;28;20071;-61
2023/05/20 06:48:24;;;;;;;17.83;12.75;;;;;;;;;;5092335;28;20132;-61
2023/05/20 06:50:50;;;;;;;20.10;13.65;;;;;;;;;;5071142;28;20107;-61
2023/05/20 06:53:16;;;;;;;18.58;13.38;;;;;;;;;;5053432;28;20103;-62
2023/05/20 06:55:41;;;;;;;19.42;13.90;;;;;;;;;;5039325;28;20028;-63
2023/05/20 06:58:07;;;;;;;19.77;13.38;;;;;;;;;;5056322;28;20031;-65
2023/05/20 07:00:32;;;;;;;16.80;13.18;;;;;;;;;;5054508;28;20025;-65
2023/05/20 07:02:57;;;;;;;20.15;13.40;;;;;;;;;;5073064;28;20020;-63
2023/05/20 07:05:23;;;;;;;18.73;12.40;;;;;;;;;;5072863;28;20081;-62
2023/05/20 07:07:49;;;;;;;19.35;14.55;;;;;;;;;;5072771;28;20035;-61
2023/05/20 07:10:14;;;;;;;20.92;14.35;;;;;;;;;;5055653;28;20013;-61
2023/05/20 07:12:48;;;;;;;20.17;14.68;;;;;;;;;;5039102;28;20457;-61
2023/05/20 07:15:14;;;;;;;19.23;12.82;;;;;;;;;;5055588;28;20112;-61
2023/05/20 07:17:39;;;;;;;19.42;13.15;;;;;;;;;;5055370;28;20110;-60
2023/05/20 07:20:07;;;;;;;21.45;15.27;;;;;;;;;;5055525;28;20033;-61
2023/05/20 07:22:33;;;;;;;20.00;13.90;;;;;;;;;;5055082;28;20040;-61
2023/05/20 07:25:12;;;;;;;17.10;12.43;;;;;;;;;;5055350;28;20126;-61
2023/05/20 07:27:37;;;;;;;15.10;11.88;;;;;;;;;;5073786;28;20527;-61
2023/05/20 07:30:03;;;;;;;19.05;14.40;;;;;;;;;;5060394;28;20016;-61
2023/05/20 07:32:30;;;;;;;20.75;14.95;;;;;;;;;;5059266;28;20120;-61
2023/05/20 07:34:55;;;;;;;17.75;12.10;;;;;;;;;;5075661;28;20060;-62
2023/05/20 07:37:21;;;;;;;23.27;15.10;;;;;;;;;;5074714;28;20028;-61
2023/05/20 07:39:46;;;;;;;22.23;15.80;;;;;;;;;;5092108;28;20089;-61
2023/05/20 07:42:11;;;;;;;19.00;13.05;;;;;;;;;;5075425;28;20063;-61
2023/05/20 07:44:40;;;;;;;19.63;13.75;;;;;;;;;;5075797;28;20111;-61
2023/05/20 07:47:06;;;;;;;19.63;14.90;;;;;;;;;;5059396;28;20046;-61
2023/05/20 07:49:32;;;;;;;20.52;14.10;;;;;;;;;;5051622;28;20047;-61
2023/05/20 07:51:58;;;;;;;19.92;12.65;;;;;;;;;;5036217;28;20650;-63
2023/05/20 07:54:23;;;;;;;17.77;12.18;;;;;;;;;;5044433;28;20032;-63
2023/05/20 07:56:51;;;;;;;15.13;10.50;;;;;;;;;;5083967;28;20090;-64
2023/05/20 07:59:17;;;;;;;18.02;12.45;;;;;;;;;;5076009;28;20040;-64
2023/05/20 08:01:44;;;;;;;20.45;12.32;;;;;;;;;;5069396;28;20024;-64
2023/05/20 08:04:12;;;;;;;11.90;9.18;;;;;;;;;;5055257;28;20021;-64
2023/05/20 08:06:38;;;;;;;18.70;11.70;;;;;;;;;;5055380;28;20013;-64
2023/05/20 08:09:06;;;;;;;20.83;14.40;;;;;;;;;;5054568;28;20032;-64
2023/05/20 08:11:34;;;;;;;18.00;13.18;;;;;;;;;;5059399;28;20024;-64
2023/05/20 08:14:01;;;;;;;18.90;12.88;;;;;;;;;;5062133;28;20040;-64
2023/05/20 08:16:29;;;;;;;19.08;13.23;;;;;;;;;;5087779;28;20492;-64
2023/05/20 08:18:55;;;;;;;17.58;12.70;;;;;;;;;;5038898;28;20037;-64
2023/05/20 08:21:21;;;;;;;17.02;13.07;;;;;;;;;;5038658;28;20033;-64
2023/05/20 08:23:49;;;;;;;17.52;11.70;;;;;;;;;;5056452;28;20074;-64
2023/05/20 08:26:15;;;;;;;17.40;12.30;;;;;;;;;;5073262;28;20024;-65
2023/05/20 08:28:41;;;;;;;16.45;12.73;;;;;;;;;;5062494;28;20033;-65
2023/05/20 08:31:07;;;;;;;14.05;11.45;;;;;;;;;;5056257;28;20032;-65
2023/05/20 08:33:33;;;;;;;12.15;9.15;;;;;;;;;;5071966;28;20033;-65
2023/05/20 08:35:59;;;;;;;12.82;9.82;;;;;;;;;;5074426;28;20017;-65
2023/05/20 08:38:25;;;;;;;12.48;9.80;;;;;;;;;;5055587;28;20025;-65
2023/05/20 08:40:50;;;;;;;10.68;8.63;;;;;;;;;;5089008;28;20496;-65
2023/05/20 08:43:16;;;;;;;13.68;10.63;;;;;;;;;;5109911;28;20353;-64
2023/05/20 08:45:41;;;;;;;17.70;9.68;;;;;;;;;;5057990;28;20025;-64
2023/05/20 08:48:11;;;;;;;11.55;9.40;;;;;;;;;;5058027;28;20021;-64
2023/05/20 08:50:37;;;;;;;16.55;11.15;;;;;;;;;;5055889;28;20115;-64
2023/05/20 08:53:03;;;;;;;11.80;10.23;;;;;;;;;;5059259;28;20039;-64
2023/05/20 08:55:47;;;;;;;13.15;9.80;;;;;;;;;;5088094;28;20537;-64
2023/05/20 08:58:14;;;;;;;22.30;13.00;;;;;;;;;;5064600;28;20040;-64
2023/05/20 09:00:41;;;;;;;20.05;13.60;;;;;;;;;;5055358;28;20041;-64
2023/05/20 09:03:06;;;;;;;92.28;20.73;;;;;;;;;;5056050;28;20082;-64
2023/05/20 09:05:32;;;;;;;31.60;14.68;;;;;;;;;;5055894;28;20027;-64
2023/05/20 09:08:05;;;;;;;13.48;10.70;;;;;;;;;;5075377;28;20456;-64
2023/05/20 09:10:31;;;;;;;18.08;11.35;;;;;;;;;;5073480;28;20427;-64
2023/05/20 09:12:56;;;;;;;16.40;11.52;;;;;;;;;;5065371;28;20039;-64
2023/05/20 09:15:21;;;;;;;18.55;12.38;;;;;;;;;;5057806;28;20104;-64
2023/05/20 09:17:48;;;;;;;21.90;15.00;;;;;;;;;;5090825;28;20418;-64
2023/05/20 09:20:14;;;;;;;17.70;12.65;;;;;;;;;;5057110;28;20115;-64
2023/05/20 09:22:39;;;;;;;21.05;14.73;;;;;;;;;;5074662;28;20154;-64
2023/05/20 09:25:05;;;;;;;20.95;15.43;;;;;;;;;;5075091;28;20119;-64
2023/05/20 09:27:30;;;;;;;20.88;14.80;;;;;;;;;;5076354;28;20070;-64
2023/05/20 09:29:56;;;;;;;19.48;14.18;;;;;;;;;;5074777;28;20029;-64
2023/05/20 09:32:23;;;;;;;20.98;15.07;;;;;;;;;;5057667;28;20039;-64
2023/05/20 09:34:48;;;;;;;22.70;15.00;;;;;;;;;;5067475;28;20024;-64
2023/05/20 09:37:16;;;;;;;24.80;15.10;;;;;;;;;;5056876;28;20024;-61
2023/05/20 09:40:02;;;;;;;23.92;15.82;;;;;;;;;;5079057;28;20123;-61
2023/05/20 09:42:37;;;;;;;25.33;17.58;;;;;;;;;;5056078;28;20048;-60
2023/05/20 09:45:03;;;;;;;21.20;15.65;;;;;;;;;;5063302;28;20071;-61
2023/05/20 09:47:29;;;;;;;23.52;16.63;;;;;;;;;;5063775;28;20025;-61
2023/05/20 09:50:02;;;;;;;21.45;15.77;;;;;;;;;;5054467;28;20025;-61
2023/05/20 09:52:28;;;;;;;23.00;16.08;;;;;;;;;;5080549;28;20039;-63
2023/05/20 09:54:55;;;;;;;23.23;14.65;;;;;;;;;;5076997;28;20104;-62
2023/05/20 09:57:20;;;;;;;23.95;16.20;;;;;;;;;;5095179;28;20425;-63
2023/05/20 09:59:46;;;;;;;24.65;16.25;;;;;;;;;;5076418;28;20108;-63
2023/05/20 10:02:11;;;;;;;20.20;15.40;;;;;;;;;;5072503;28;20036;-63
2023/05/20 10:04:41;;;;;;;27.40;18.83;;;;;;;;;;5069951;28;20033;-63
2023/05/20 10:07:25;;;;;;;25.17;17.45;;;;;;;;;;5054651;28;20029;-63
2023/05/20 10:10:08;;;;;;;20.25;15.18;;;;;;;;;;5081983;28;20103;-63
2023/05/20 10:12:33;;;;;;;19.90;14.73;;;;;;;;;;5083853;28;20055;-64
2023/05/20 10:15:06;;;;;;;22.03;14.83;;;;;;;;;;5088008;28;20408;-64
2023/05/20 10:17:31;;;;;;;19.92;15.23;;;;;;;;;;5039423;28;20297;-63
2023/05/20 10:20:00;;;;;;;20.40;15.70;;;;;;;;;;5056469;28;20036;-63
2023/05/20 10:22:30;;;;;;;21.13;15.85;;;;;;;;;;5072038;28;20048;-63
2023/05/20 10:25:00;;;;;;;22.17;17.20;;;;;;;;;;5073947;28;20470;-63
2023/05/20 10:27:25;;;;;;;23.30;16.85;;;;;;;;;;5074154;28;20051;-63
2023/05/20 10:29:55;;;;;;;22.23;16.35;;;;;;;;;;5056110;28;20480;-63
2023/05/20 10:32:25;;;;;;;24.38;16.27;;;;;;;;;;5074098;28;20111;-63
2023/05/20 10:34:50;;;;;;;24.40;14.52;;;;;;;;;;5073422;28;20120;-63
2023/05/20 10:37:24;;;;;;;22.40;15.68;;;;;;;;;;5074766;28;20040;-63
2023/05/20 10:39:49;;;;;;;22.75;16.60;;;;;;;;;;5073845;28;20040;-63
2023/05/20 10:42:15;;;;;;;22.27;14.68;;;;;;;;;;5074074;28;20040;-63
2023/05/20 10:44:41;;;;;;;21.42;14.63;;;;;;;;;;5073821;28;20028;-63
2023/05/20 10:47:07;;;;;;;23.02;16.85;;;;;;;;;;5065240;28;20476;-62
2023/05/20 10:49:33;;;;;;;22.63;16.15;;;;;;;;;;5092427;28;20048;-63
2023/05/20 10:52:00;;;;;;;20.60;15.55;;;;;;;;;;5093705;28;20040;-63
2023/05/20 10:54:27;;;;;;;20.10;14.73;;;;;;;;;;5093872;28;20020;-63
2023/05/20 10:56:53;;;;;;;20.65;15.55;;;;;;;;;;5057824;28;20024;-63
2023/05/20 10:59:20;;;;;;;20.58;17.75;;;;;;;;;;5093611;28;20578;-63
2023/05/20 11:01:45;;;;;;;16.85;12.02;;;;;;;;;;5075159;28;20031;-63
2023/05/20 11:04:12;;;;;;;23.38;15.93;;;;;;;;;;5093472;28;20384;-64
2023/05/20 11:06:37;;;;;;;20.38;15.25;;;;;;;;;;5093348;28;20032;-65
2023/05/20 11:09:05;;;;;;;19.65;14.85;;;;;;;;;;5088969;28;20020;-64
2023/05/20 11:11:30;;;;;;;21.65;15.18;;;;;;;;;;5093015;28;20056;-64
2023/05/20 11:13:56;;;;;;;23.15;16.15;;;;;;;;;;5092767;28;20432;-64
2023/05/20 11:16:21;;;;;;;23.75;16.13;;;;;;;;;;5092799;28;20042;-64
2023/05/20 11:18:47;;;;;;;23.13;16.00;;;;;;;;;;5092860;28;20032;-65
2023/05/20 11:21:12;;;;;;;17.15;13.52;;;;;;;;;;5077990;28;20108;-65
2023/05/20 11:23:38;;;;;;;26.13;16.80;;;;;;;;;;5072132;28;20082;-65
2023/05/20 11:26:04;;;;;;;20.30;16.42;;;;;;;;;;5071769;28;20025;-65
2023/05/20 11:28:31;;;;;;;20.15;15.68;;;;;;;;;;5053750;28;20032;-65
2023/05/20 11:30:58;;;;;;;22.80;16.77;;;;;;;;;;5071731;28;20028;-65
2023/05/20 11:33:25;;;;;;;22.38;16.83;;;;;;;;;;5057295;28;20363;-63
2023/05/20 11:35:52;;;;;;;18.92;14.65;;;;;;;;;;5072525;28;20063;-61
2023/05/20 11:38:17;;;;;;;22.23;17.60;;;;;;;;;;5054498;28;20449;-61
2023/05/20 11:40:50;;;;;;;22.73;15.52;;;;;;;;;;5071995;28;20040;-61
2023/05/20 11:43:17;;;;;;;22.35;18.48;;;;;;;;;;5072410;28;20040;-61
2023/05/20 11:45:44;;;;;;;19.50;16.63;;;;;;;;;;5073505;28;20009;-61
2023/05/20 11:48:11;;;;;;;21.10;14.75;;;;;;;;;;5076823;28;20028;-61
2023/05/20 11:50:39;;;;;;;19.38;14.98;;;;;;;;;;5075896;28;20450;-61
2023/05/20 11:53:20;;;;;;;21.40;16.88;;;;;;;;;;5076527;28;20035;-64
2023/05/20 11:55:46;;;;;;;20.85;15.68;;;;;;;;;;5058941;28;20071;-65
2023/05/20 11:58:14;;;;;;;20.85;17.30;;;;;;;;;;5067723;28;20027;-65
2023/05/20 12:00:40;;;;;;;19.48;15.48;;;;;;;;;;5094796;28;20536;-65
2023/05/20 12:03:05;;;;;;;24.95;17.63;;;;;;;;;;5075766;28;20033;-65
2023/05/20 12:05:30;;;;;;;19.20;13.68;;;;;;;;;;5076475;28;20059;-64
2023/05/20 12:07:58;;;;;;;19.88;15.77;;;;;;;;;;5062435;28;20463;-64
2023/05/20 12:10:24;;;;;;;15.80;13.45;;;;;;;;;;5096467;28;20032;-65
2023/05/20 12:13:07;;;;;;;19.42;16.02;;;;;;;;;;5096425;28;20026;-64
2023/05/20 12:15:33;;;;;;;17.88;14.25;;;;;;;;;;5097010;28;20028;-64
2023/05/20 12:18:00;;;;;;;20.50;17.33;;;;;;;;;;5077264;28;20040;-64
2023/05/20 12:20:25;;;;;;;20.15;16.40;;;;;;;;;;5057495;28;20064;-64
2023/05/20 12:22:53;;;;;;;20.90;15.77;;;;;;;;;;5057867;28;20101;-64
2023/05/20 12:25:20;;;;;;;17.85;15.68;;;;;;;;;;5074818;28;20080;-64
2023/05/20 12:27:47;;;;;;;18.83;15.93;;;;;;;;;;5057478;28;20043;-64
2023/05/20 12:30:14;;;;;;;22.00;15.50;;;;;;;;;;5075751;28;20035;-64
2023/05/20 12:32:40;;;;;;;20.23;14.82;;;;;;;;;;5075630;28;20043;-64
2023/05/20 12:35:06;;;;;;;19.63;15.77;;;;;;;;;;5075728;28;20028;-64
2023/05/20 12:37:31;;;;;;;22.60;16.48;;;;;;;;;;5057393;28;20439;-64
2023/05/20 12:39:57;;;;;;;22.30;15.50;;;;;;;;;;5074257;28;20098;-64
2023/05/20 12:42:22;;;;;;;17.75;15.25;;;;;;;;;;5074408;28;20063;-64
2023/05/20 12:44:47;;;;;;;19.33;16.20;;;;;;;;;;5057613;28;20016;-64
2023/05/20 12:47:13;;;;;;;21.60;16.15;;;;;;;;;;5057734;28;20024;-64
2023/05/20 12:49:38;;;;;;;19.77;16.27;;;;;;;;;;5076074;28;20479;-64
2023/05/20 12:52:04;;;;;;;20.90;15.98;;;;;;;;;;5084854;28;20029;-64
2023/05/20 12:54:30;;;;;;;18.88;15.82;;;;;;;;;;5075131;28;20059;-64
2023/05/20 12:56:55;;;;;;;18.50;14.75;;;;;;;;;;5074677;28;20042;-64
2023/05/20 12:59:21;;;;;;;20.92;15.40;;;;;;;;;;5075033;28;20033;-64
2023/05/20 13:01:46;;;;;;;19.85;14.23;;;;;;;;;;5075321;28;20024;-64
2023/05/20 13:04:14;;;;;;;18.00;14.52;;;;;;;;;;5075024;28;20036;-64
2023/05/20 13:06:39;;;;;;;19.75;15.50;;;;;;;;;;5074792;28;20016;-64
2023/05/20 13:09:05;;;;;;;19.17;14.80;;;;;;;;;;5056273;28;20032;-64
2023/05/20 13:11:31;;;;;;;19.73;14.75;;;;;;;;;;5073541;28;20032;-64
2023/05/20 13:13:56;;;;;;;20.40;15.57;;;;;;;;;;5074768;28;20586;-64
2023/05/20 13:16:22;;;;;;;27.70;16.27;;;;;;;;;;5057467;28;20025;-63
2023/05/20 13:18:50;;;;;;;22.52;15.05;;;;;;;;;;5075019;28;20090;-61
2023/05/20 13:21:15;;;;;;;21.42;15.50;;;;;;;;;;5074032;28;20125;-61
2023/05/20 13:23:41;;;;;;;22.02;16.38;;;;;;;;;;5074364;28;20743;-61
2023/05/20 13:26:07;;;;;;;19.48;14.70;;;;;;;;;;5070760;28;20461;-61
2023/05/20 13:28:33;;;;;;;18.85;15.50;;;;;;;;;;5065916;28;20028;-61
2023/05/20 13:30:58;;;;;;;17.73;14.55;;;;;;;;;;5074919;28;20071;-61
2023/05/20 13:33:24;;;;;;;18.08;14.77;;;;;;;;;;5075331;28;20551;-61
2023/05/20 13:35:50;;;;;;;17.02;14.52;;;;;;;;;;5075410;28;20475;-61
2023/05/20 13:38:16;;;;;;;20.42;13.73;;;;;;;;;;5056108;28;20056;-61
2023/05/20 13:40:41;;;;;;;24.02;19.27;;;;;;;;;;5058104;28;20397;-62
2023/05/20 13:43:06;;;;;;;18.13;14.38;;;;;;;;;;5059200;28;20056;-61
2023/05/20 13:45:32;;;;;;;21.02;16.15;;;;;;;;;;5064585;28;20606;-61
2023/05/20 13:47:57;;;;;;;25.95;18.95;;;;;;;;;;5072545;28;20460;-61
2023/05/20 13:50:23;;;;;;;74.07;51.45;;;;;;;;;;5049830;28;20020;-61
2023/05/20 13:52:48;;;;;;;22.55;18.83;;;;;;;;;;5085420;28;20036;-61
2023/05/20 13:55:14;;;;;;;20.60;16.67;;;;;;;;;;5067692;28;20020;-61
2023/05/20 13:57:40;;;;;;;16.27;14.02;;;;;;;;;;5067776;28;20032;-62
2023/05/20 14:00:09;;;;;;;18.83;13.60;;;;;;;;;;5057291;28;20040;-61
2023/05/20 14:02:35;;;;;;;20.48;14.98;;;;;;;;;;5043674;28;20032;-62
2023/05/20 14:05:01;;;;;;;23.20;16.55;;;;;;;;;;5062192;28;20035;-61
2023/05/20 14:07:26;;;;;;;20.63;15.85;;;;;;;;;;5047145;28;20009;-61
2023/05/20 14:09:52;;;;;;;23.45;17.20;;;;;;;;;;5088368;28;20381;-61
2023/05/20 14:12:17;;;;;;;19.35;15.63;;;;;;;;;;5062879;28;20029;-61
2023/05/20 14:14:43;;;;;;;18.30;14.25;;;;;;;;;;5072246;28;20062;-61
2023/05/20 14:17:08;;;;;;;19.27;14.27;;;;;;;;;;5065115;28;20417;-61
2023/05/20 14:19:36;;;;;;;18.63;15.27;;;;;;;;;;5019877;28;20029;-61
2023/05/20 14:22:02;;;;;;;19.90;14.40;;;;;;;;;;5059151;28;20044;-61
2023/05/20 14:24:27;;;;;;;22.17;16.45;;;;;;;;;;5056058;28;20020;-61